Time;durP1;ratioP1;P1;durP2;ratioP2;P2;SDS_P1;SDS_P2;PMS_P1;PMS_P2;Temp;Humidity;BMP_temperature;BMP_pressure;BME280_temperature;BME280_humidity;BME280_pressure;Samples;Min_cycle;Max_cycle;Signal;HPM_P1;HPM_P2
2020/12/06 00:00:12;;;;;;;21.00;13.00;;;;;;;4.27;68.77;99935.56;685801;28;21592;-63
2020/12/06 00:00:34;;;;;;;22.50;13.10;;;;;;;4.26;68.97;99937.41;684892;28;46397;-64
2020/12/06 00:00:55;;;;;;;19.40;12.50;;;;;;;4.26;68.87;99931.19;685731;28;22376;-63
2020/12/06 00:01:17;;;;;;;21.55;12.77;;;;;;;4.26;68.88;99928.53;684693;28;42690;-62
2020/12/06 00:01:39;;;;;;;20.05;12.40;;;;;;;4.27;69.00;99940.91;685038;28;29728;-64
2020/12/06 00:02:00;;;;;;;19.33;12.45;;;;;;;4.27;68.92;99938.22;686019;28;4683;-65
2020/12/06 00:02:22;;;;;;;21.40;13.75;;;;;;;4.25;69.00;99933.03;684045;28;45135;-63
2020/12/06 00:02:43;;;;;;;21.67;13.98;;;;;;;4.27;68.88;99938.22;684965;28;15816;-62
2020/12/06 00:03:04;;;;;;;21.00;12.68;;;;;;;4.27;68.95;99932.88;685565;28;22398;-64
2020/12/06 00:03:26;;;;;;;20.88;13.40;;;;;;;4.27;68.88;99930.22;684224;28;45249;-65
2020/12/06 00:03:48;;;;;;;22.70;13.95;;;;;;;4.28;68.95;99937.25;686139;28;1044;-64
2020/12/06 00:04:09;;;;;;;20.00;12.45;;;;;;;4.26;68.94;99928.53;685202;28;33481;-62
2020/12/06 00:04:31;;;;;;;19.10;12.63;;;;;;;4.27;68.98;99936.38;685547;28;20581;-62
2020/12/06 00:04:52;;;;;;;19.52;13.13;;;;;;;4.28;69.09;99934.56;685212;28;1271;-64
2020/12/06 00:05:14;;;;;;;21.02;13.27;;;;;;;4.28;69.19;99931.91;685318;28;22168;-63
2020/12/06 00:05:35;;;;;;;21.05;13.05;;;;;;;4.27;69.04;99931.03;684521;28;45232;-63
2020/12/06 00:05:58;;;;;;;21.88;12.98;;;;;;;4.28;69.00;99934.56;685760;28;989;-64
2020/12/06 00:06:20;;;;;;;21.52;12.88;;;;;;;4.26;69.21;99934.72;685172;28;22927;-64
2020/12/06 00:06:42;;;;;;;19.88;13.00;;;;;;;4.27;69.04;99931.03;686652;28;11034;-64
2020/12/06 00:07:04;;;;;;;21.00;12.90;;;;;;;4.27;69.04;99936.38;685288;28;28131;-63
2020/12/06 00:07:25;;;;;;;19.02;12.90;;;;;;;4.27;69.19;99928.38;684710;28;46483;-63
2020/12/06 00:07:47;;;;;;;19.85;13.02;;;;;;;4.28;69.24;99935.41;685016;28;45231;-64
2020/12/06 00:08:08;;;;;;;21.10;12.88;;;;;;;4.27;69.12;99927.53;686198;28;909;-64
2020/12/06 00:08:31;;;;;;;23.63;13.45;;;;;;;4.29;69.13;99936.22;684729;28;4184;-64
2020/12/06 00:08:53;;;;;;;22.23;13.68;;;;;;;4.27;69.08;99941.72;683973;28;45326;-64
2020/12/06 00:09:15;;;;;;;21.15;13.70;;;;;;;4.27;69.29;99933.72;685765;28;897;-63
2020/12/06 00:09:36;;;;;;;19.48;12.98;;;;;;;4.27;69.21;99936.38;684826;28;37154;-67
2020/12/06 00:09:58;;;;;;;20.75;13.10;;;;;;;4.27;69.29;99941.72;685474;28;24478;-64
2020/12/06 00:10:19;;;;;;;20.75;12.93;;;;;;;4.25;69.29;99927.69;685872;28;25306;-64
2020/12/06 00:10:40;;;;;;;20.00;13.07;;;;;;;4.26;69.36;99923.19;685999;28;913;-64
2020/12/06 00:11:02;;;;;;;20.35;13.30;;;;;;;4.25;69.30;99921.50;682316;28;30381;-63
2020/12/06 00:11:23;;;;;;;22.08;13.25;;;;;;;4.25;69.39;99933.03;682747;28;23407;-64
2020/12/06 00:11:45;;;;;;;22.42;13.32;;;;;;;4.25;69.29;99929.53;683498;28;1328;-64
2020/12/06 00:12:06;;;;;;;21.45;13.10;;;;;;;4.24;69.42;99926.00;682409;28;37107;-65
2020/12/06 00:12:27;;;;;;;21.90;13.25;;;;;;;4.25;69.39;99921.50;683619;28;882;-63
2020/12/06 00:12:48;;;;;;;23.05;13.45;;;;;;;4.24;69.37;99919.81;680146;28;45857;-64
2020/12/06 00:13:10;;;;;;;20.52;13.35;;;;;;;4.23;69.42;99918.13;685334;28;23199;-64
2020/12/06 00:13:31;;;;;;;22.73;13.70;;;;;;;4.23;69.52;99919.00;684181;28;47314;-63
2020/12/06 00:13:53;;;;;;;20.60;13.35;;;;;;;4.23;69.60;99919.00;685187;28;22471;-64
2020/12/06 00:14:14;;;;;;;21.98;13.73;;;;;;;4.23;69.35;99916.31;685269;28;18859;-63
2020/12/06 00:14:36;;;;;;;19.75;12.90;;;;;;;4.22;69.50;99911.97;685209;28;22348;-63
2020/12/06 00:14:57;;;;;;;20.80;13.15;;;;;;;4.23;69.45;99926.16;683547;28;40108;-64
2020/12/06 00:15:18;;;;;;;22.30;13.65;;;;;;;4.21;69.52;99907.59;683921;28;23671;-64
2020/12/06 00:15:39;;;;;;;20.25;13.27;;;;;;;4.21;69.47;99912.94;683318;28;46394;-64
2020/12/06 00:16:01;;;;;;;19.20;13.05;;;;;;;4.22;69.45;99917.31;685033;28;935;-64
2020/12/06 00:16:22;;;;;;;20.05;13.48;;;;;;;4.23;69.56;99920.81;684609;28;44510;-64
2020/12/06 00:16:44;;;;;;;20.50;13.77;;;;;;;4.22;69.49;99917.31;685998;28;14732;-64
2020/12/06 00:17:05;;;;;;;22.38;14.18;;;;;;;4.20;69.52;99918.44;685579;28;8994;-64
2020/12/06 00:17:27;;;;;;;22.27;13.52;;;;;;;4.22;69.53;99917.31;685003;28;22488;-61
2020/12/06 00:17:52;;;;;;;22.67;13.73;;;;;;;4.21;69.50;99920.97;683827;28;60731;-63
2020/12/06 00:18:14;;;;;;;21.38;13.70;;;;;;;4.20;69.62;99913.97;683749;28;13354;-64
2020/12/06 00:18:35;;;;;;;21.13;13.57;;;;;;;4.21;69.52;99914.78;683001;28;22414;-64
2020/12/06 00:18:57;;;;;;;21.35;13.43;;;;;;;4.22;69.70;99913.81;685144;28;12528;-64
2020/12/06 00:19:18;;;;;;;22.00;13.60;;;;;;;4.22;69.60;99913.81;685682;28;45181;-64
2020/12/06 00:19:42;;;;;;;24.30;13.63;;;;;;;4.22;69.58;99909.28;686555;28;23595;-64
2020/12/06 00:20:05;;;;;;;23.03;13.70;;;;;;;4.22;69.63;99913.81;683460;28;106945;-64
2020/12/06 00:20:26;;;;;;;20.15;13.02;;;;;;;4.23;69.66;99912.78;683913;28;64805;-63
2020/12/06 00:20:48;;;;;;;22.27;13.68;;;;;;;4.21;69.57;99910.28;684652;28;45013;-64
2020/12/06 00:21:10;;;;;;;24.25;13.95;;;;;;;4.22;69.60;99917.31;685723;28;23478;-65
2020/12/06 00:21:32;;;;;;;23.08;13.65;;;;;;;4.22;69.63;99903.13;684357;28;45093;-64
2020/12/06 00:21:54;;;;;;;20.83;13.00;;;;;;;4.21;69.76;99907.59;685554;28;14276;-64
2020/12/06 00:22:15;;;;;;;20.95;13.90;;;;;;;4.22;69.78;99905.78;684724;28;47163;-64
2020/12/06 00:22:37;;;;;;;22.27;13.77;;;;;;;4.22;69.70;99911.13;684927;28;46347;-63
2020/12/06 00:23:00;;;;;;;21.70;13.40;;;;;;;4.22;69.62;99911.13;685880;28;23450;-64
2020/12/06 00:23:22;;;;;;;21.63;13.48;;;;;;;4.22;69.67;99909.28;683942;28;69475;-64
2020/12/06 00:23:43;;;;;;;21.98;13.90;;;;;;;4.23;69.67;99918.13;684371;28;44397;-64
2020/12/06 00:24:05;;;;;;;22.17;13.82;;;;;;;4.24;69.66;99911.81;684511;28;46299;-62
2020/12/06 00:24:26;;;;;;;23.95;13.82;;;;;;;4.23;69.69;99912.78;684577;28;45054;-64
2020/12/06 00:24:49;;;;;;;22.73;13.80;;;;;;;4.23;69.76;99908.31;685134;28;22421;-64
2020/12/06 00:25:10;;;;;;;23.27;13.98;;;;;;;4.23;69.74;99913.66;684611;28;44380;-64
2020/12/06 00:25:32;;;;;;;22.85;13.80;;;;;;;4.23;69.74;99907.44;684976;28;23420;-64
2020/12/06 00:25:53;;;;;;;24.63;14.23;;;;;;;4.23;69.73;99905.63;684114;28;46323;-64
2020/12/06 00:26:19;;;;;;;18.77;13.63;;;;;;;4.21;69.65;99902.25;685106;28;23560;-64
2020/12/06 00:26:41;;;;;;;21.42;13.95;;;;;;;4.22;69.83;99903.94;681285;28;136257;-64
2020/12/06 00:27:02;;;;;;;24.67;13.95;;;;;;;4.23;69.86;99894.09;685030;28;22417;-64
2020/12/06 00:27:23;;;;;;;23.02;13.93;;;;;;;4.23;69.89;99907.44;684305;28;46317;-64
2020/12/06 00:27:45;;;;;;;22.52;14.48;;;;;;;4.22;69.81;99897.78;684921;28;22300;-64
2020/12/06 00:28:06;;;;;;;20.35;14.02;;;;;;;4.21;69.91;99896.91;685774;28;22434;-63
2020/12/06 00:28:27;;;;;;;23.03;14.40;;;;;;;4.20;69.90;99892.59;685226;28;21565;-65
2020/12/06 00:28:50;;;;;;;22.90;13.77;;;;;;;4.21;69.85;99898.75;684743;28;44594;-64
2020/12/06 00:29:11;;;;;;;23.15;13.65;;;;;;;4.20;69.92;99903.28;685782;28;8947;-65
2020/12/06 00:29:33;;;;;;;21.30;13.82;;;;;;;4.20;69.91;99897.06;685225;28;23271;-64
2020/12/06 00:29:54;;;;;;;23.65;14.60;;;;;;;4.21;69.94;99906.78;685362;28;21522;-64
2020/12/06 00:30:15;;;;;;;25.70;14.75;;;;;;;4.20;70.01;99905.09;685512;28;23457;-64
2020/12/06 00:30:37;;;;;;;23.77;14.32;;;;;;;4.18;70.10;99904.41;685320;28;35841;-64
2020/12/06 00:30:58;;;;;;;25.38;14.85;;;;;;;4.19;70.13;99903.44;685840;28;21531;-64
2020/12/06 00:31:20;;;;;;;25.52;15.50;;;;;;;4.18;70.17;99897.22;684813;28;45258;-64
2020/12/06 00:31:41;;;;;;;25.30;14.85;;;;;;;4.18;70.13;99901.75;684990;28;29869;-64
2020/12/06 00:32:03;;;;;;;22.00;13.98;;;;;;;4.16;70.14;99904.56;685782;28;9374;-63
2020/12/06 00:32:24;;;;;;;22.73;13.82;;;;;;;4.17;70.19;99900.91;684602;28;46121;-64
2020/12/06 00:32:45;;;;;;;22.83;14.27;;;;;;;4.18;69.97;99899.06;685123;28;23251;-64
2020/12/06 00:33:07;;;;;;;24.08;14.77;;;;;;;4.17;70.10;99898.25;685264;28;22397;-64
2020/12/06 00:33:28;;;;;;;23.83;14.20;;;;;;;4.18;70.13;99893.72;685423;28;23495;-64
2020/12/06 00:33:50;;;;;;;23.10;14.25;;;;;;;4.16;70.16;99891.19;684580;28;44409;-66
2020/12/06 00:34:11;;;;;;;24.80;14.52;;;;;;;4.18;70.22;99891.88;683683;28;21537;-64
2020/12/06 00:34:32;;;;;;;24.58;14.32;;;;;;;4.16;70.24;99893.88;683734;28;33517;-63
2020/12/06 00:34:54;;;;;;;25.35;14.75;;;;;;;4.16;70.20;99896.56;685322;28;22488;-65
2020/12/06 00:35:15;;;;;;;23.20;14.50;;;;;;;4.17;70.23;99897.38;685174;28;23477;-64
2020/12/06 00:35:36;;;;;;;24.35;14.75;;;;;;;4.17;70.32;99900.06;684674;28;44389;-64
2020/12/06 00:35:58;;;;;;;22.65;14.27;;;;;;;4.17;70.41;99897.38;684876;28;23512;-63
2020/12/06 00:36:19;;;;;;;22.92;14.18;;;;;;;4.15;70.37;99895.72;684883;28;46348;-63
2020/12/06 00:36:41;;;;;;;26.08;14.82;;;;;;;4.15;70.40;99893.06;685717;28;21543;-63
2020/12/06 00:37:03;;;;;;;23.63;14.60;;;;;;;4.15;70.40;99894.84;684672;28;28162;-64
2020/12/06 00:37:24;;;;;;;25.38;15.25;;;;;;;4.14;70.38;99893.19;684731;28;46339;-65
2020/12/06 00:37:46;;;;;;;25.80;15.13;;;;;;;4.14;70.38;99901.22;685690;28;23481;-64
2020/12/06 00:38:07;;;;;;;24.63;14.77;;;;;;;4.14;70.55;99893.19;684746;28;23548;-62
2020/12/06 00:38:29;;;;;;;24.45;15.20;;;;;;;4.13;70.46;99892.34;684328;28;45357;-63
2020/12/06 00:38:50;;;;;;;25.45;14.85;;;;;;;4.13;70.49;99894.19;684446;28;46127;-63
2020/12/06 00:39:11;;;;;;;23.55;14.63;;;;;;;4.14;70.54;99901.22;685303;28;22581;-63
2020/12/06 00:39:33;;;;;;;24.27;14.75;;;;;;;4.13;70.59;99896.84;685155;28;22254;-63
2020/12/06 00:39:54;;;;;;;25.38;14.52;;;;;;;4.13;70.59;99892.34;685263;28;23419;-64
2020/12/06 00:40:16;;;;;;;24.05;15.25;;;;;;;4.12;70.62;99900.50;683679;28;46312;-64
2020/12/06 00:40:37;;;;;;;22.83;14.52;;;;;;;4.13;70.60;99899.53;685228;28;23441;-64
2020/12/06 00:40:58;;;;;;;23.75;14.73;;;;;;;4.12;70.59;99895.19;684895;28;45295;-63
2020/12/06 00:41:19;;;;;;;24.77;15.18;;;;;;;4.11;70.62;99896.19;685685;28;22410;-63
2020/12/06 00:41:43;;;;;;;26.05;14.90;;;;;;;4.12;70.68;99895.19;686031;28;1011;-63
2020/12/06 00:42:04;;;;;;;24.45;15.10;;;;;;;4.13;70.48;99894.19;683025;28;92508;-64
2020/12/06 00:42:26;;;;;;;25.42;15.35;;;;;;;4.12;70.89;99889.81;686261;28;913;-65
2020/12/06 00:42:47;;;;;;;25.27;14.52;;;;;;;4.12;70.76;99890.69;685590;28;31496;-63
2020/12/06 00:43:09;;;;;;;26.13;15.45;;;;;;;4.12;70.76;99892.50;685370;28;21535;-64
2020/12/06 00:43:30;;;;;;;24.38;14.65;;;;;;;4.12;70.73;99895.19;683745;28;37797;-64
2020/12/06 00:43:52;;;;;;;23.33;15.05;;;;;;;4.12;70.75;99888.00;685869;28;22081;-65
2020/12/06 00:44:13;;;;;;;22.98;15.50;;;;;;;4.12;70.82;99897.84;683244;28;989;-64
2020/12/06 00:44:35;;;;;;;24.58;14.32;;;;;;;4.11;70.80;99883.66;682757;28;22541;-64
2020/12/06 00:44:56;;;;;;;27.17;14.88;;;;;;;4.12;70.83;99889.81;682191;28;32405;-62
2020/12/06 00:45:18;;;;;;;27.63;15.93;;;;;;;4.11;70.79;99888.16;682379;28;22801;-64
2020/12/06 00:45:39;;;;;;;24.67;15.27;;;;;;;4.11;70.86;99890.84;680215;28;46405;-64
2020/12/06 00:46:00;;;;;;;23.77;15.00;;;;;;;4.10;70.76;99881.97;682258;28;22403;-64
2020/12/06 00:46:23;;;;;;;26.42;16.05;;;;;;;4.09;70.75;99882.13;683550;28;23683;-64
2020/12/06 00:46:46;;;;;;;26.13;15.68;;;;;;;4.09;70.86;99882.97;680469;28;114810;-64
2020/12/06 00:47:08;;;;;;;27.23;15.90;;;;;;;4.10;70.88;99881.13;684193;28;21868;-64
2020/12/06 00:47:29;;;;;;;24.38;15.23;;;;;;;4.11;70.97;99885.50;683646;28;45620;-64
2020/12/06 00:47:50;;;;;;;24.90;15.15;;;;;;;4.11;70.96;99882.81;685381;28;21533;-64
2020/12/06 00:48:12;;;;;;;24.98;15.60;;;;;;;4.11;70.93;99882.81;685790;28;21493;-63
2020/12/06 00:48:34;;;;;;;24.50;15.88;;;;;;;4.10;71.08;99881.97;686374;28;47557;-64
2020/12/06 00:48:55;;;;;;;23.90;15.25;;;;;;;4.10;71.02;99883.81;684599;28;45484;-62
2020/12/06 00:49:16;;;;;;;22.98;15.00;;;;;;;4.10;71.10;99878.47;686085;28;5274;-64
2020/12/06 00:49:38;;;;;;;25.13;15.50;;;;;;;4.10;71.08;99883.81;685095;28;23541;-63
2020/12/06 00:50:00;;;;;;;24.55;15.20;;;;;;;4.09;71.06;99880.31;683221;28;44644;-63
2020/12/06 00:50:21;;;;;;;22.98;14.90;;;;;;;4.10;71.16;99875.78;682965;28;46398;-64
2020/12/06 00:50:43;;;;;;;23.98;15.20;;;;;;;4.09;71.12;99879.44;678543;29;20514;-64
2020/12/06 00:51:11;;;;;;;26.48;15.15;;;;;;;4.09;71.10;99882.97;677586;29;59992;-64
2020/12/06 00:51:33;;;;;;;24.88;15.50;;;;;;;4.09;71.18;99877.63;677745;29;92302;-63
2020/12/06 00:51:55;;;;;;;26.50;15.95;;;;;;;4.08;71.21;99872.44;682794;28;1835;-64
2020/12/06 00:52:18;;;;;;;28.15;16.00;;;;;;;4.09;71.06;99874.97;678990;28;46407;-63
2020/12/06 00:52:40;;;;;;;24.92;15.57;;;;;;;4.09;71.14;99872.28;678596;28;67368;-64
2020/12/06 00:53:01;;;;;;;25.85;15.68;;;;;;;4.09;71.17;99868.75;681911;28;44405;-63
2020/12/06 00:53:23;;;;;;;26.85;15.98;;;;;;;4.09;71.15;99872.28;679964;29;21523;-64
2020/12/06 00:53:45;;;;;;;24.63;14.85;;;;;;;4.09;71.06;99874.09;679289;29;45302;-65
2020/12/06 00:54:07;;;;;;;27.48;16.08;;;;;;;4.10;71.12;99865.09;679471;29;44400;-64
2020/12/06 00:54:29;;;;;;;27.88;15.63;;;;;;;4.10;71.13;99879.28;679664;28;46338;-64
2020/12/06 00:54:50;;;;;;;25.23;15.13;;;;;;;4.09;71.17;99874.09;681996;28;46364;-63
2020/12/06 00:55:12;;;;;;;26.88;15.60;;;;;;;4.10;71.19;99876.63;682496;28;22391;-64
2020/12/06 00:55:33;;;;;;;26.17;15.68;;;;;;;4.10;71.17;99873.94;679053;29;44138;-63
2020/12/06 00:55:56;;;;;;;28.53;16.03;;;;;;;4.10;71.12;99876.63;680835;28;29111;-63
2020/12/06 00:56:18;;;;;;;27.05;16.38;;;;;;;4.11;71.16;99878.31;682385;28;45354;-64
2020/12/06 00:56:40;;;;;;;26.85;16.20;;;;;;;4.10;71.15;99873.94;684923;28;40644;-63
2020/12/06 00:57:01;;;;;;;27.00;15.85;;;;;;;4.09;71.23;99866.94;684725;28;40243;-64
2020/12/06 00:57:22;;;;;;;27.20;15.93;;;;;;;4.09;71.23;99874.09;685531;28;22412;-64
2020/12/06 00:57:44;;;;;;;28.27;15.68;;;;;;;4.10;71.20;99867.78;686037;28;19344;-63
2020/12/06 00:58:05;;;;;;;29.23;16.08;;;;;;;4.09;71.16;99864.28;684606;28;46379;-63
2020/12/06 00:58:27;;;;;;;29.70;16.65;;;;;;;4.10;71.24;99867.78;685376;28;23430;-64
2020/12/06 00:58:49;;;;;;;26.13;15.60;;;;;;;4.10;71.34;99862.44;685149;28;22478;-64
2020/12/06 00:59:10;;;;;;;25.58;15.85;;;;;;;4.10;71.12;99857.91;683937;28;69352;-65
2020/12/06 00:59:32;;;;;;;24.60;15.63;;;;;;;4.10;71.15;99857.91;685435;28;22418;-65
2020/12/06 00:59:53;;;;;;;27.55;15.90;;;;;;;4.11;71.17;99861.44;685152;28;44205;-64
2020/12/06 01:00:15;;;;;;;27.15;15.48;;;;;;;4.11;71.27;99858.78;685592;28;21691;-65
2020/12/06 01:00:36;;;;;;;26.90;15.27;;;;;;;4.11;71.17;99856.09;684231;28;45126;-64
2020/12/06 01:00:57;;;;;;;26.63;15.60;;;;;;;4.09;71.19;99855.41;685234;28;22409;-64
2020/12/06 01:01:19;;;;;;;23.67;15.23;;;;;;;4.10;71.24;99849.91;684933;28;22154;-65
2020/12/06 01:01:41;;;;;;;26.02;16.13;;;;;;;4.09;71.35;99848.25;685164;28;35955;-66
2020/12/06 01:02:05;;;;;;;27.02;16.20;;;;;;;4.10;71.28;99852.56;685592;28;29882;-64
2020/12/06 01:02:26;;;;;;;26.35;15.23;;;;;;;4.09;71.33;99847.38;683579;28;80367;-64
2020/12/06 01:02:47;;;;;;;27.35;15.98;;;;;;;4.09;71.31;99852.72;685507;28;23777;-65
2020/12/06 01:03:09;;;;;;;27.40;16.35;;;;;;;4.09;71.27;99847.38;685652;28;22486;-65
2020/12/06 01:03:30;;;;;;;27.23;16.17;;;;;;;4.09;71.35;99845.56;684612;28;46416;-65
2020/12/06 01:03:51;;;;;;;28.05;16.38;;;;;;;4.09;71.42;99842.91;685655;28;21545;-65
2020/12/06 01:04:13;;;;;;;26.92;15.52;;;;;;;4.09;71.45;99847.38;685887;28;3621;-67
2020/12/06 01:04:34;;;;;;;26.50;16.35;;;;;;;4.09;71.40;99842.03;684872;28;44370;-65
2020/12/06 01:04:55;;;;;;;28.75;16.77;;;;;;;4.09;71.47;99844.72;685198;28;22506;-64
2020/12/06 01:05:17;;;;;;;30.98;16.88;;;;;;;4.08;71.56;99843.88;684247;28;44369;-65
2020/12/06 01:05:38;;;;;;;28.70;16.13;;;;;;;4.08;71.45;99851.91;685353;28;21528;-65
2020/12/06 01:06:00;;;;;;;28.70;16.77;;;;;;;4.07;71.54;99852.88;684466;28;986;-65
2020/12/06 01:06:22;;;;;;;30.13;17.02;;;;;;;4.09;71.45;99852.72;683723;28;22184;-65
2020/12/06 01:06:43;;;;;;;30.27;16.05;;;;;;;4.09;71.58;99850.91;683148;28;46329;-64
2020/12/06 01:07:04;;;;;;;29.42;16.80;;;;;;;4.09;71.67;99848.25;685439;28;23256;-64
2020/12/06 01:07:26;;;;;;;29.20;16.92;;;;;;;4.08;71.63;99846.56;685156;28;22631;-65
2020/12/06 01:07:48;;;;;;;30.45;17.23;;;;;;;4.09;71.68;99850.06;684548;28;46617;-65
2020/12/06 01:08:09;;;;;;;31.13;18.00;;;;;;;4.10;71.66;99854.41;684515;28;46582;-64
2020/12/06 01:08:30;;;;;;;30.83;17.60;;;;;;;4.10;71.71;99855.25;684882;28;22773;-64
2020/12/06 01:08:52;;;;;;;30.55;17.40;;;;;;;4.10;71.64;99855.25;684537;28;46312;-65
2020/12/06 01:09:13;;;;;;;32.08;17.17;;;;;;;4.10;71.79;99854.41;685733;28;21542;-65
2020/12/06 01:09:35;;;;;;;30.10;17.17;;;;;;;4.10;71.87;99863.25;684752;28;44327;-66
2020/12/06 01:09:56;;;;;;;33.03;18.00;;;;;;;4.10;71.98;99865.94;685662;28;22398;-64
2020/12/06 01:10:17;;;;;;;30.95;17.65;;;;;;;4.10;71.95;99857.91;685800;28;21745;-64
2020/12/06 01:10:39;;;;;;;30.55;17.35;;;;;;;4.10;72.03;99859.75;685208;28;22276;-64
2020/12/06 01:11:00;;;;;;;29.40;16.95;;;;;;;4.11;72.10;99861.44;684581;28;46470;-64
2020/12/06 01:11:22;;;;;;;29.52;17.42;;;;;;;4.11;72.10;99856.94;685508;28;15252;-65
2020/12/06 01:11:47;;;;;;;32.40;18.50;;;;;;;4.12;72.07;99855.94;685059;28;27223;-67
2020/12/06 01:12:08;;;;;;;33.13;18.60;;;;;;;4.12;72.03;99855.94;683778;28;84121;-64
2020/12/06 01:12:30;;;;;;;32.33;18.15;;;;;;;4.13;71.95;99854.94;684989;28;38332;-65
2020/12/06 01:12:52;;;;;;;31.33;18.50;;;;;;;4.14;72.10;99853.13;685575;28;23495;-65
2020/12/06 01:13:13;;;;;;;29.58;17.63;;;;;;;4.14;72.08;99853.13;684506;28;46385;-66
2020/12/06 01:13:34;;;;;;;29.63;18.20;;;;;;;4.14;72.06;99855.78;685624;28;23627;-65
2020/12/06 01:13:55;;;;;;;30.15;18.27;;;;;;;4.13;72.17;99851.44;686366;28;953;-64
2020/12/06 01:14:17;;;;;;;33.05;18.13;;;;;;;4.14;72.12;99858.47;684828;28;46401;-64
2020/12/06 01:14:38;;;;;;;32.50;18.35;;;;;;;4.14;72.08;99853.13;685635;28;22376;-65
2020/12/06 01:15:00;;;;;;;32.17;18.15;;;;;;;4.14;72.03;99851.28;685731;28;1283;-65
2020/12/06 01:15:21;;;;;;;30.63;17.90;;;;;;;4.14;72.15;99850.44;684949;28;22379;-65
2020/12/06 01:15:43;;;;;;;29.58;18.00;;;;;;;4.14;72.13;99853.94;684039;28;45228;-64
2020/12/06 01:16:04;;;;;;;30.48;17.95;;;;;;;4.16;72.02;99861.81;685900;28;883;-64
2020/12/06 01:16:26;;;;;;;32.53;18.17;;;;;;;4.13;72.11;99854.94;684629;28;44394;-65
2020/12/06 01:16:50;;;;;;;31.20;18.50;;;;;;;4.15;72.10;99857.44;685507;28;21552;-66
2020/12/06 01:17:12;;;;;;;31.95;18.70;;;;;;;4.15;72.10;99858.31;682505;28;115407;-64
2020/12/06 01:17:33;;;;;;;30.83;18.00;;;;;;;4.16;72.20;99859.13;684621;28;47623;-64
2020/12/06 01:17:54;;;;;;;28.67;17.50;;;;;;;4.16;72.07;99861.81;685224;28;21551;-64
2020/12/06 01:18:16;;;;;;;30.90;17.73;;;;;;;4.17;72.08;99859.97;684858;28;45286;-64
2020/12/06 01:18:37;;;;;;;32.85;18.33;;;;;;;4.18;72.15;99865.16;685021;28;21867;-64
2020/12/06 01:18:59;;;;;;;34.97;19.25;;;;;;;4.17;72.04;99863.50;687681;28;22377;-65
2020/12/06 01:19:20;;;;;;;30.50;18.65;;;;;;;4.18;72.00;99865.16;687367;28;45354;-65
2020/12/06 01:19:41;;;;;;;28.50;17.30;;;;;;;4.19;72.04;99864.16;687883;28;22410;-66
2020/12/06 01:20:03;;;;;;;29.55;17.70;;;;;;;4.18;72.08;99861.66;688056;28;23490;-64
2020/12/06 01:20:25;;;;;;;31.98;18.27;;;;;;;4.19;72.18;99869.50;686275;28;62464;-65
2020/12/06 01:20:46;;;;;;;30.30;18.08;;;;;;;4.19;72.03;99871.34;687215;28;23426;-64
2020/12/06 01:21:09;;;;;;;31.67;18.50;;;;;;;4.19;72.11;99869.50;685012;28;45667;-64
2020/12/06 01:21:30;;;;;;;31.42;18.48;;;;;;;4.20;72.03;99862.31;684869;28;44256;-65
2020/12/06 01:21:52;;;;;;;31.10;17.38;;;;;;;4.20;71.86;99862.31;685743;28;20085;-65
2020/12/06 01:22:14;;;;;;;31.73;17.83;;;;;;;4.21;71.95;99853.31;684438;28;60739;-66
2020/12/06 01:22:36;;;;;;;31.52;17.83;;;;;;;4.21;71.85;99862.16;686640;28;878;-65
2020/12/06 01:22:57;;;;;;;33.60;18.00;;;;;;;4.21;71.93;99853.31;685478;28;24965;-66
2020/12/06 01:23:19;;;;;;;31.05;17.90;;;;;;;4.22;72.02;99860.34;685527;28;22364;-65
2020/12/06 01:23:40;;;;;;;33.47;18.90;;;;;;;4.22;72.17;99847.81;684764;28;46367;-66
2020/12/06 01:24:01;;;;;;;30.48;18.55;;;;;;;4.22;71.94;99855.84;684984;28;47357;-65
2020/12/06 01:24:23;;;;;;;31.42;18.27;;;;;;;4.23;71.84;99854.84;685225;28;23426;-64
2020/12/06 01:24:44;;;;;;;32.33;18.20;;;;;;;4.23;71.95;99854.00;686309;28;21525;-66
2020/12/06 01:25:06;;;;;;;31.52;18.42;;;;;;;4.23;71.82;99851.31;685575;28;38795;-64
2020/12/06 01:25:27;;;;;;;30.23;17.98;;;;;;;4.24;71.94;99847.66;686036;28;21542;-64
2020/12/06 01:25:48;;;;;;;32.53;18.30;;;;;;;4.24;71.95;99844.97;686524;28;21764;-64
2020/12/06 01:26:11;;;;;;;29.02;17.58;;;;;;;4.24;71.88;99847.66;685637;28;23397;-65
2020/12/06 01:26:32;;;;;;;31.63;18.23;;;;;;;4.24;71.96;99847.66;684454;28;69184;-64
2020/12/06 01:26:53;;;;;;;32.67;18.23;;;;;;;4.23;71.79;99844.16;686229;28;21565;-64
2020/12/06 01:27:14;;;;;;;32.45;18.40;;;;;;;4.26;71.97;99843.84;686395;28;17668;-65
2020/12/06 01:27:36;;;;;;;29.60;17.85;;;;;;;4.25;71.86;99838.66;685409;28;44399;-65
2020/12/06 01:27:57;;;;;;;32.13;18.58;;;;;;;4.27;71.85;99842.00;685785;28;21544;-67
2020/12/06 01:28:19;;;;;;;33.38;19.10;;;;;;;4.26;71.83;99843.84;684878;28;46371;-64
2020/12/06 01:28:40;;;;;;;30.77;18.38;;;;;;;4.26;71.88;99849.19;685289;28;23443;-65
2020/12/06 01:29:02;;;;;;;30.67;18.08;;;;;;;4.26;71.88;99842.97;685846;28;21557;-65
2020/12/06 01:29:23;;;;;;;34.38;18.15;;;;;;;4.27;71.94;99844.66;685010;28;45235;-65
2020/12/06 01:29:44;;;;;;;31.63;18.02;;;;;;;4.26;72.10;99843.84;686025;28;22508;-65
2020/12/06 01:30:07;;;;;;;31.92;18.30;;;;;;;4.26;72.17;99851.88;685366;28;44428;-66
2020/12/06 01:30:28;;;;;;;31.40;18.25;;;;;;;4.27;72.20;99848.16;684877;28;45268;-65
2020/12/06 01:30:50;;;;;;;31.45;17.60;;;;;;;4.27;72.24;99848.16;684544;28;45277;-65
2020/12/06 01:31:11;;;;;;;30.58;17.42;;;;;;;4.28;72.12;99844.50;686163;28;22383;-64
2020/12/06 01:31:32;;;;;;;33.72;18.95;;;;;;;4.28;72.14;99838.34;685780;28;22155;-64
2020/12/06 01:31:53;;;;;;;34.13;17.95;;;;;;;4.28;72.19;99841.84;686196;28;19804;-64
2020/12/06 01:32:15;;;;;;;31.60;18.27;;;;;;;4.29;72.18;99840.81;685267;28;46342;-65
2020/12/06 01:32:37;;;;;;;29.88;17.77;;;;;;;4.29;72.06;99835.47;683147;28;23460;-64
2020/12/06 01:32:58;;;;;;;34.20;19.35;;;;;;;4.29;72.25;99837.31;682443;28;46388;-65
2020/12/06 01:33:19;;;;;;;35.63;19.00;;;;;;;4.28;72.36;99836.50;683202;28;21532;-64
2020/12/06 01:33:41;;;;;;;31.00;18.30;;;;;;;4.28;72.40;99836.50;681850;28;45248;-65
2020/12/06 01:34:02;;;;;;;30.45;17.90;;;;;;;4.28;72.45;99836.50;683172;28;23474;-64
2020/12/06 01:34:24;;;;;;;33.25;18.00;;;;;;;4.28;72.49;99833.81;683442;28;21548;-65
2020/12/06 01:34:45;;;;;;;31.35;18.50;;;;;;;4.29;72.30;99829.31;685176;28;46327;-64
2020/12/06 01:35:06;;;;;;;31.38;18.50;;;;;;;4.28;72.26;99830.31;685574;28;22479;-65
2020/12/06 01:35:27;;;;;;;34.70;18.85;;;;;;;4.29;72.33;99840.00;684778;28;46398;-65
2020/12/06 01:35:49;;;;;;;34.45;18.67;;;;;;;4.27;72.42;99832.13;685774;28;21353;-64
2020/12/06 01:36:12;;;;;;;33.55;18.75;;;;;;;4.28;72.39;99833.00;684994;28;46231;-66
2020/12/06 01:36:33;;;;;;;32.75;18.15;;;;;;;4.28;72.13;99831.16;683940;28;69133;-64
2020/12/06 01:36:55;;;;;;;32.97;18.35;;;;;;;4.28;72.34;99833.00;685870;28;17421;-65
2020/12/06 01:37:17;;;;;;;34.65;19.40;;;;;;;4.28;72.41;99824.97;685714;28;22417;-66
2020/12/06 01:37:39;;;;;;;33.78;18.80;;;;;;;4.28;72.28;99833.81;685010;28;46198;-65
2020/12/06 01:38:00;;;;;;;32.25;18.10;;;;;;;4.29;72.20;99835.47;685359;28;44387;-65
2020/12/06 01:38:21;;;;;;;30.70;18.02;;;;;;;4.28;72.29;99825.81;686251;28;22411;-64
2020/12/06 01:38:42;;;;;;;31.95;18.42;;;;;;;4.28;72.19;99831.16;685092;28;44372;-65
2020/12/06 01:39:05;;;;;;;30.02;17.92;;;;;;;4.29;72.36;99827.47;685730;28;21975;-64
2020/12/06 01:39:26;;;;;;;30.45;18.60;;;;;;;4.29;72.44;99826.63;685000;28;46298;-66
2020/12/06 01:39:47;;;;;;;30.67;19.23;;;;;;;4.29;72.27;99832.81;685981;28;22217;-65
2020/12/06 01:40:08;;;;;;;31.63;18.70;;;;;;;4.29;72.38;99822.09;685369;28;44541;-66
2020/12/06 01:40:30;;;;;;;34.45;18.85;;;;;;;4.29;72.45;99827.47;685909;28;22427;-64
2020/12/06 01:40:51;;;;;;;33.78;19.15;;;;;;;4.28;72.51;99823.13;685247;28;45149;-64
2020/12/06 01:41:13;;;;;;;33.72;19.27;;;;;;;4.29;72.57;99831.97;686101;28;21562;-65
2020/12/06 01:41:34;;;;;;;32.70;19.23;;;;;;;4.30;72.44;99823.78;685468;28;22750;-64
2020/12/06 01:41:56;;;;;;;31.70;18.33;;;;;;;4.29;72.33;99824.78;685762;28;22405;-65